Terminal Aerodrome Forecast
Issued by NWS

Home | Current Version | Previous Version | Text Only | Print | Product List | Glossary On
Versions: 1 2 3 4 5 6 7 8 9 10 11 12 13 14
000
FTUS43 KMQT 062320
TAFSAW
TAF
KSAW 062320Z 0700/0724 16009KT P6SM SCT050 BKN250
     FM070400 18007KT P6SM BKN250 WS005/20035KT
     FM071300 19010KT P6SM SCT250
     FM071900 17016G27KT P6SM SCT100 BKN250=

USA.gov is the U.S. government's official web portal to all federal, state and local government web resources and services.